sensor_id;sensor_type;location;lat;lon;timestamp;P1;durP1;ratioP1;P2;durP2;ratioP2
75012;SDS011;63567;49.956;20.130;2023-05-18T00:00:32;17.17;;;9.37;;
75012;SDS011;63567;49.956;20.130;2023-05-18T00:02:58;16.33;;;9.47;;
75012;SDS011;63567;49.956;20.130;2023-05-18T00:05:23;16.47;;;9.27;;
75012;SDS011;63567;49.956;20.130;2023-05-18T00:07:48;16.03;;;9.37;;
75012;SDS011;63567;49.956;20.130;2023-05-18T00:10:14;15.07;;;9.10;;
75012;SDS011;63567;49.956;20.130;2023-05-18T00:12:39;15.20;;;8.73;;
75012;SDS011;63567;49.956;20.130;2023-05-18T00:15:05;16.73;;;9.13;;
75012;SDS011;63567;49.956;20.130;2023-05-18T00:17:31;19.10;;;9.63;;
75012;SDS011;63567;49.956;20.130;2023-05-18T00:19:56;16.93;;;10.23;;
75012;SDS011;63567;49.956;20.130;2023-05-18T00:22:22;18.50;;;8.88;;
75012;SDS011;63567;49.956;20.130;2023-05-18T00:24:50;14.63;;;8.23;;
75012;SDS011;63567;49.956;20.130;2023-05-18T00:27:15;15.27;;;9.27;;
75012;SDS011;63567;49.956;20.130;2023-05-18T00:29:41;16.13;;;9.30;;
75012;SDS011;63567;49.956;20.130;2023-05-18T00:32:06;17.83;;;8.87;;
75012;SDS011;63567;49.956;20.130;2023-05-18T00:34:31;15.70;;;9.43;;
75012;SDS011;63567;49.956;20.130;2023-05-18T00:36:56;13.97;;;7.97;;
75012;SDS011;63567;49.956;20.130;2023-05-18T00:39:22;16.37;;;8.97;;
75012;SDS011;63567;49.956;20.130;2023-05-18T00:41:47;14.93;;;8.73;;
75012;SDS011;63567;49.956;20.130;2023-05-18T00:44:12;19.37;;;9.30;;
75012;SDS011;63567;49.956;20.130;2023-05-18T00:46:38;16.53;;;9.03;;
75012;SDS011;63567;49.956;20.130;2023-05-18T00:49:03;15.87;;;9.70;;
75012;SDS011;63567;49.956;20.130;2023-05-18T00:51:28;15.20;;;9.15;;
75012;SDS011;63567;49.956;20.130;2023-05-18T00:53:56;18.45;;;9.77;;
75012;SDS011;63567;49.956;20.130;2023-05-18T00:56:24;17.67;;;10.00;;
75012;SDS011;63567;49.956;20.130;2023-05-18T00:58:54;17.92;;;10.23;;
75012;SDS011;63567;49.956;20.130;2023-05-18T01:01:26;15.15;;;9.13;;
75012;SDS011;63567;49.956;20.130;2023-05-18T01:03:58;16.50;;;9.68;;
75012;SDS011;63567;49.956;20.130;2023-05-18T01:06:27;17.67;;;10.10;;
75012;SDS011;63567;49.956;20.130;2023-05-18T01:08:56;17.17;;;9.68;;
75012;SDS011;63567;49.956;20.130;2023-05-18T01:14:00;15.93;;;9.73;;
75012;SDS011;63567;49.956;20.130;2023-05-18T01:16:30;16.15;;;9.85;;
75012;SDS011;63567;49.956;20.130;2023-05-18T01:25:03;14.55;;;8.52;;
75012;SDS011;63567;49.956;20.130;2023-05-18T01:27:42;16.00;;;8.05;;
75012;SDS011;63567;49.956;20.130;2023-05-18T01:30:11;15.82;;;8.13;;
75012;SDS011;63567;49.956;20.130;2023-05-18T01:32:39;17.75;;;8.82;;
75012;SDS011;63567;49.956;20.130;2023-05-18T01:35:10;13.18;;;8.35;;
75012;SDS011;63567;49.956;20.130;2023-05-18T01:37:35;13.13;;;8.45;;
75012;SDS011;63567;49.956;20.130;2023-05-18T01:40:01;14.00;;;9.07;;
75012;SDS011;63567;49.956;20.130;2023-05-18T01:42:29;15.15;;;9.00;;
75012;SDS011;63567;49.956;20.130;2023-05-18T01:45:01;16.75;;;9.10;;
75012;SDS011;63567;49.956;20.130;2023-05-18T01:47:31;15.50;;;8.63;;
75012;SDS011;63567;49.956;20.130;2023-05-18T01:50:02;13.15;;;8.65;;
75012;SDS011;63567;49.956;20.130;2023-05-18T01:52:35;14.73;;;8.50;;
75012;SDS011;63567;49.956;20.130;2023-05-18T01:55:03;14.57;;;9.20;;
75012;SDS011;63567;49.956;20.130;2023-05-18T01:57:30;13.48;;;8.73;;
75012;SDS011;63567;49.956;20.130;2023-05-18T01:59:58;15.05;;;9.27;;
75012;SDS011;63567;49.956;20.130;2023-05-18T02:02:24;12.68;;;8.23;;
75012;SDS011;63567;49.956;20.130;2023-05-18T02:04:50;14.77;;;9.35;;
75012;SDS011;63567;49.956;20.130;2023-05-18T02:07:16;14.97;;;9.13;;
75012;SDS011;63567;49.956;20.130;2023-05-18T02:09:41;15.97;;;9.03;;
75012;SDS011;63567;49.956;20.130;2023-05-18T02:12:08;16.08;;;9.25;;
75012;SDS011;63567;49.956;20.130;2023-05-18T02:14:33;15.95;;;9.18;;
75012;SDS011;63567;49.956;20.130;2023-05-18T02:16:58;13.30;;;8.87;;
75012;SDS011;63567;49.956;20.130;2023-05-18T02:19:24;16.05;;;8.32;;
75012;SDS011;63567;49.956;20.130;2023-05-18T02:21:50;14.38;;;8.35;;
75012;SDS011;63567;49.956;20.130;2023-05-18T02:24:15;13.07;;;7.47;;
75012;SDS011;63567;49.956;20.130;2023-05-18T02:26:42;12.27;;;8.10;;
75012;SDS011;63567;49.956;20.130;2023-05-18T02:29:07;14.13;;;8.82;;
75012;SDS011;63567;49.956;20.130;2023-05-18T02:31:36;13.25;;;7.93;;
75012;SDS011;63567;49.956;20.130;2023-05-18T02:34:02;13.32;;;8.23;;
75012;SDS011;63567;49.956;20.130;2023-05-18T02:36:27;15.65;;;9.10;;
75012;SDS011;63567;49.956;20.130;2023-05-18T02:39:00;13.00;;;7.88;;
75012;SDS011;63567;49.956;20.130;2023-05-18T02:41:26;13.23;;;8.13;;
75012;SDS011;63567;49.956;20.130;2023-05-18T02:43:51;12.70;;;8.23;;
75012;SDS011;63567;49.956;20.130;2023-05-18T02:46:17;13.90;;;8.50;;
75012;SDS011;63567;49.956;20.130;2023-05-18T02:48:42;15.13;;;8.37;;
75012;SDS011;63567;49.956;20.130;2023-05-18T02:51:09;16.23;;;8.45;;
75012;SDS011;63567;49.956;20.130;2023-05-18T02:53:34;12.00;;;7.80;;
75012;SDS011;63567;49.956;20.130;2023-05-18T02:56:00;13.35;;;8.13;;
75012;SDS011;63567;49.956;20.130;2023-05-18T02:58:27;15.38;;;9.05;;
75012;SDS011;63567;49.956;20.130;2023-05-18T03:00:53;13.85;;;8.35;;
75012;SDS011;63567;49.956;20.130;2023-05-18T03:03:19;13.68;;;8.80;;
75012;SDS011;63567;49.956;20.130;2023-05-18T03:05:45;16.73;;;8.32;;
75012;SDS011;63567;49.956;20.130;2023-05-18T03:08:10;14.13;;;8.67;;
75012;SDS011;63567;49.956;20.130;2023-05-18T03:10:36;14.43;;;7.73;;
75012;SDS011;63567;49.956;20.130;2023-05-18T03:13:01;16.65;;;9.02;;
75012;SDS011;63567;49.956;20.130;2023-05-18T03:15:27;13.57;;;8.38;;
75012;SDS011;63567;49.956;20.130;2023-05-18T03:17:55;12.68;;;8.25;;
75012;SDS011;63567;49.956;20.130;2023-05-18T03:20:20;13.37;;;8.97;;
75012;SDS011;63567;49.956;20.130;2023-05-18T03:22:46;12.75;;;8.48;;
75012;SDS011;63567;49.956;20.130;2023-05-18T03:25:11;12.43;;;8.10;;
75012;SDS011;63567;49.956;20.130;2023-05-18T03:27:37;11.70;;;7.67;;
75012;SDS011;63567;49.956;20.130;2023-05-18T03:30:02;13.40;;;7.57;;
75012;SDS011;63567;49.956;20.130;2023-05-18T03:32:28;13.45;;;7.25;;
75012;SDS011;63567;49.956;20.130;2023-05-18T03:34:55;11.35;;;7.65;;
75012;SDS011;63567;49.956;20.130;2023-05-18T03:37:21;11.40;;;7.40;;
75012;SDS011;63567;49.956;20.130;2023-05-18T03:39:46;10.60;;;7.37;;
75012;SDS011;63567;49.956;20.130;2023-05-18T03:42:11;12.67;;;7.60;;
75012;SDS011;63567;49.956;20.130;2023-05-18T03:44:36;10.70;;;6.63;;
75012;SDS011;63567;49.956;20.130;2023-05-18T03:47:02;12.33;;;7.10;;
75012;SDS011;63567;49.956;20.130;2023-05-18T03:49:27;12.15;;;6.43;;
75012;SDS011;63567;49.956;20.130;2023-05-18T03:51:54;11.25;;;6.10;;
75012;SDS011;63567;49.956;20.130;2023-05-18T03:54:20;14.30;;;6.85;;
75012;SDS011;63567;49.956;20.130;2023-05-18T03:56:46;10.00;;;5.45;;
75012;SDS011;63567;49.956;20.130;2023-05-18T03:59:12;8.57;;;5.22;;
75012;SDS011;63567;49.956;20.130;2023-05-18T04:01:37;11.43;;;5.45;;
75012;SDS011;63567;49.956;20.130;2023-05-18T04:04:06;10.35;;;4.63;;
75012;SDS011;63567;49.956;20.130;2023-05-18T04:06:32;10.60;;;4.07;;
75012;SDS011;63567;49.956;20.130;2023-05-18T04:08:59;8.52;;;4.28;;
75012;SDS011;63567;49.956;20.130;2023-05-18T04:11:28;7.55;;;4.10;;
75012;SDS011;63567;49.956;20.130;2023-05-18T04:13:53;9.98;;;4.35;;
75012;SDS011;63567;49.956;20.130;2023-05-18T04:16:19;12.20;;;4.30;;
75012;SDS011;63567;49.956;20.130;2023-05-18T04:18:45;10.02;;;3.55;;
75012;SDS011;63567;49.956;20.130;2023-05-18T04:21:11;7.23;;;3.33;;
75012;SDS011;63567;49.956;20.130;2023-05-18T04:23:36;8.13;;;3.57;;
75012;SDS011;63567;49.956;20.130;2023-05-18T04:26:03;6.97;;;3.20;;
75012;SDS011;63567;49.956;20.130;2023-05-18T04:28:29;6.15;;;3.10;;
75012;SDS011;63567;49.956;20.130;2023-05-18T04:30:55;7.82;;;3.22;;
75012;SDS011;63567;49.956;20.130;2023-05-18T04:33:20;9.37;;;3.37;;
75012;SDS011;63567;49.956;20.130;2023-05-18T04:35:45;7.97;;;3.05;;
75012;SDS011;63567;49.956;20.130;2023-05-18T04:38:11;4.93;;;3.03;;
75012;SDS011;63567;49.956;20.130;2023-05-18T04:40:36;6.15;;;3.10;;
75012;SDS011;63567;49.956;20.130;2023-05-18T04:43:02;7.70;;;3.38;;
75012;SDS011;63567;49.956;20.130;2023-05-18T04:45:27;7.97;;;3.40;;
75012;SDS011;63567;49.956;20.130;2023-05-18T04:47:53;8.30;;;3.42;;
75012;SDS011;63567;49.956;20.130;2023-05-18T04:50:19;9.68;;;4.20;;
75012;SDS011;63567;49.956;20.130;2023-05-18T04:52:47;7.88;;;3.50;;
75012;SDS011;63567;49.956;20.130;2023-05-18T04:55:18;8.15;;;3.92;;
75012;SDS011;63567;49.956;20.130;2023-05-18T04:57:49;8.20;;;3.47;;
75012;SDS011;63567;49.956;20.130;2023-05-18T05:00:17;6.65;;;3.60;;
75012;SDS011;63567;49.956;20.130;2023-05-18T05:02:44;9.85;;;3.97;;
75012;SDS011;63567;49.956;20.130;2023-05-18T05:05:09;7.78;;;3.00;;
75012;SDS011;63567;49.956;20.130;2023-05-18T05:07:34;7.40;;;4.40;;
75012;SDS011;63567;49.956;20.130;2023-05-18T05:09:59;7.10;;;3.27;;
75012;SDS011;63567;49.956;20.130;2023-05-18T05:12:25;4.57;;;2.72;;
75012;SDS011;63567;49.956;20.130;2023-05-18T05:14:50;6.87;;;2.90;;
75012;SDS011;63567;49.956;20.130;2023-05-18T05:17:15;5.20;;;2.93;;
75012;SDS011;63567;49.956;20.130;2023-05-18T05:19:41;6.17;;;2.67;;
75012;SDS011;63567;49.956;20.130;2023-05-18T05:22:06;7.47;;;2.63;;
75012;SDS011;63567;49.956;20.130;2023-05-18T05:24:31;6.70;;;2.90;;
75012;SDS011;63567;49.956;20.130;2023-05-18T05:26:56;5.83;;;2.50;;
75012;SDS011;63567;49.956;20.130;2023-05-18T05:29:22;8.60;;;2.73;;
75012;SDS011;63567;49.956;20.130;2023-05-18T05:31:47;4.97;;;2.20;;
75012;SDS011;63567;49.956;20.130;2023-05-18T05:34:12;4.47;;;2.20;;
75012;SDS011;63567;49.956;20.130;2023-05-18T05:36:38;7.60;;;2.45;;
75012;SDS011;63567;49.956;20.130;2023-05-18T05:39:03;4.90;;;2.50;;
75012;SDS011;63567;49.956;20.130;2023-05-18T05:41:28;5.70;;;2.25;;
75012;SDS011;63567;49.956;20.130;2023-05-18T05:43:54;5.65;;;2.58;;
75012;SDS011;63567;49.956;20.130;2023-05-18T05:46:20;5.40;;;2.40;;
75012;SDS011;63567;49.956;20.130;2023-05-18T05:48:45;6.17;;;2.03;;
75012;SDS011;63567;49.956;20.130;2023-05-18T05:51:11;5.70;;;2.20;;
75012;SDS011;63567;49.956;20.130;2023-05-18T05:53:36;5.17;;;2.23;;
75012;SDS011;63567;49.956;20.130;2023-05-18T05:56:01;6.37;;;2.07;;
75012;SDS011;63567;49.956;20.130;2023-05-18T05:58:27;5.30;;;1.90;;
75012;SDS011;63567;49.956;20.130;2023-05-18T06:00:52;4.27;;;1.87;;
75012;SDS011;63567;49.956;20.130;2023-05-18T06:03:17;6.23;;;1.90;;
75012;SDS011;63567;49.956;20.130;2023-05-18T06:05:42;5.97;;;1.93;;
75012;SDS011;63567;49.956;20.130;2023-05-18T06:08:08;4.10;;;2.07;;
75012;SDS011;63567;49.956;20.130;2023-05-18T06:10:33;5.70;;;1.80;;
75012;SDS011;63567;49.956;20.130;2023-05-18T06:12:58;7.77;;;2.20;;
75012;SDS011;63567;49.956;20.130;2023-05-18T06:15:24;5.90;;;2.30;;
75012;SDS011;63567;49.956;20.130;2023-05-18T06:17:49;5.17;;;2.00;;
75012;SDS011;63567;49.956;20.130;2023-05-18T06:20:14;3.90;;;1.93;;
75012;SDS011;63567;49.956;20.130;2023-05-18T06:22:39;6.00;;;1.90;;
75012;SDS011;63567;49.956;20.130;2023-05-18T06:25:05;5.10;;;1.63;;
75012;SDS011;63567;49.956;20.130;2023-05-18T06:27:30;4.43;;;1.67;;
75012;SDS011;63567;49.956;20.130;2023-05-18T06:29:56;7.35;;;2.00;;
75012;SDS011;63567;49.956;20.130;2023-05-18T06:32:22;4.27;;;1.70;;
75012;SDS011;63567;49.956;20.130;2023-05-18T06:34:47;4.43;;;1.63;;
75012;SDS011;63567;49.956;20.130;2023-05-18T06:37:14;3.95;;;1.83;;
75012;SDS011;63567;49.956;20.130;2023-05-18T06:39:40;3.55;;;1.50;;
75012;SDS011;63567;49.956;20.130;2023-05-18T06:42:05;3.60;;;1.77;;
75012;SDS011;63567;49.956;20.130;2023-05-18T06:44:30;6.55;;;1.90;;
75012;SDS011;63567;49.956;20.130;2023-05-18T06:46:56;3.93;;;1.70;;
75012;SDS011;63567;49.956;20.130;2023-05-18T06:49:21;4.77;;;1.60;;
75012;SDS011;63567;49.956;20.130;2023-05-18T06:51:46;4.97;;;1.87;;
75012;SDS011;63567;49.956;20.130;2023-05-18T06:54:12;3.80;;;1.77;;
75012;SDS011;63567;49.956;20.130;2023-05-18T06:56:37;4.80;;;1.90;;
75012;SDS011;63567;49.956;20.130;2023-05-18T06:59:02;4.50;;;1.60;;
75012;SDS011;63567;49.956;20.130;2023-05-18T07:01:27;5.07;;;1.80;;
75012;SDS011;63567;49.956;20.130;2023-05-18T07:03:53;5.03;;;1.80;;
75012;SDS011;63567;49.956;20.130;2023-05-18T07:06:18;5.00;;;2.20;;
75012;SDS011;63567;49.956;20.130;2023-05-18T07:08:43;3.93;;;1.60;;
75012;SDS011;63567;49.956;20.130;2023-05-18T07:11:09;6.25;;;1.80;;
75012;SDS011;63567;49.956;20.130;2023-05-18T07:13:34;3.93;;;1.43;;
75012;SDS011;63567;49.956;20.130;2023-05-18T07:16:00;4.00;;;1.80;;
75012;SDS011;63567;49.956;20.130;2023-05-18T07:18:25;4.03;;;1.80;;
75012;SDS011;63567;49.956;20.130;2023-05-18T07:20:50;4.65;;;1.65;;
75012;SDS011;63567;49.956;20.130;2023-05-18T07:23:16;4.00;;;1.60;;
75012;SDS011;63567;49.956;20.130;2023-05-18T07:25:41;3.93;;;1.60;;
75012;SDS011;63567;49.956;20.130;2023-05-18T07:28:06;5.17;;;1.83;;
75012;SDS011;63567;49.956;20.130;2023-05-18T07:30:32;2.73;;;1.30;;
75012;SDS011;63567;49.956;20.130;2023-05-18T07:32:57;4.30;;;1.80;;
75012;SDS011;63567;49.956;20.130;2023-05-18T07:35:23;4.07;;;1.70;;
75012;SDS011;63567;49.956;20.130;2023-05-18T07:37:50;4.32;;;1.80;;
75012;SDS011;63567;49.956;20.130;2023-05-18T07:40:15;3.67;;;1.67;;
75012;SDS011;63567;49.956;20.130;2023-05-18T07:42:41;3.92;;;1.75;;
75012;SDS011;63567;49.956;20.130;2023-05-18T07:45:07;6.03;;;1.85;;
75012;SDS011;63567;49.956;20.130;2023-05-18T07:47:33;4.65;;;1.70;;
75012;SDS011;63567;49.956;20.130;2023-05-18T07:49:58;2.78;;;1.48;;
75012;SDS011;63567;49.956;20.130;2023-05-18T07:52:24;5.13;;;1.90;;
75012;SDS011;63567;49.956;20.130;2023-05-18T07:54:49;4.80;;;1.73;;
75012;SDS011;63567;49.956;20.130;2023-05-18T07:57:15;5.68;;;1.75;;
75012;SDS011;63567;49.956;20.130;2023-05-18T07:59:40;5.17;;;1.80;;
75012;SDS011;63567;49.956;20.130;2023-05-18T08:02:06;4.97;;;2.00;;
75012;SDS011;63567;49.956;20.130;2023-05-18T08:04:31;3.30;;;2.17;;
75012;SDS011;63567;49.956;20.130;2023-05-18T08:06:57;3.60;;;1.77;;
75012;SDS011;63567;49.956;20.130;2023-05-18T08:09:24;5.00;;;1.90;;
75012;SDS011;63567;49.956;20.130;2023-05-18T08:11:50;5.50;;;2.40;;
75012;SDS011;63567;49.956;20.130;2023-05-18T08:14:16;4.72;;;2.30;;
75012;SDS011;63567;49.956;20.130;2023-05-18T08:16:41;4.23;;;1.80;;
75012;SDS011;63567;49.956;20.130;2023-05-18T08:19:07;6.17;;;1.80;;
75012;SDS011;63567;49.956;20.130;2023-05-18T08:21:32;4.07;;;1.67;;
75012;SDS011;63567;49.956;20.130;2023-05-18T08:23:58;4.80;;;1.70;;
75012;SDS011;63567;49.956;20.130;2023-05-18T08:26:23;4.30;;;1.60;;
75012;SDS011;63567;49.956;20.130;2023-05-18T08:28:50;3.00;;;1.35;;
75012;SDS011;63567;49.956;20.130;2023-05-18T08:31:16;4.13;;;2.07;;
75012;SDS011;63567;49.956;20.130;2023-05-18T08:33:41;5.33;;;2.03;;
75012;SDS011;63567;49.956;20.130;2023-05-18T08:36:06;4.03;;;1.63;;
75012;SDS011;63567;49.956;20.130;2023-05-18T08:38:32;4.15;;;1.80;;
75012;SDS011;63567;49.956;20.130;2023-05-18T08:43:58;5.35;;;1.90;;
75012;SDS011;63567;49.956;20.130;2023-05-18T08:46:27;3.40;;;1.70;;
75012;SDS011;63567;49.956;20.130;2023-05-18T08:49:04;3.45;;;1.90;;
75012;SDS011;63567;49.956;20.130;2023-05-18T08:51:32;3.28;;;1.77;;
75012;SDS011;63567;49.956;20.130;2023-05-18T08:53:59;4.20;;;1.83;;
75012;SDS011;63567;49.956;20.130;2023-05-18T08:56:24;5.22;;;2.15;;
75012;SDS011;63567;49.956;20.130;2023-05-18T08:58:55;3.70;;;1.75;;
75012;SDS011;63567;49.956;20.130;2023-05-18T09:01:23;4.57;;;1.90;;
75012;SDS011;63567;49.956;20.130;2023-05-18T09:03:52;5.75;;;2.00;;
75012;SDS011;63567;49.956;20.130;2023-05-18T09:06:19;4.20;;;1.80;;
75012;SDS011;63567;49.956;20.130;2023-05-18T09:08:45;5.03;;;2.38;;
75012;SDS011;63567;49.956;20.130;2023-05-18T09:11:11;3.85;;;1.92;;
75012;SDS011;63567;49.956;20.130;2023-05-18T09:13:37;4.15;;;2.10;;
75012;SDS011;63567;49.956;20.130;2023-05-18T09:16:03;4.30;;;2.05;;
75012;SDS011;63567;49.956;20.130;2023-05-18T09:18:28;4.65;;;2.10;;
75012;SDS011;63567;49.956;20.130;2023-05-18T09:20:53;6.07;;;2.33;;
75012;SDS011;63567;49.956;20.130;2023-05-18T09:23:19;4.10;;;1.88;;
75012;SDS011;63567;49.956;20.130;2023-05-18T09:25:45;3.42;;;1.70;;
75012;SDS011;63567;49.956;20.130;2023-05-18T09:28:21;3.53;;;1.63;;
75012;SDS011;63567;49.956;20.130;2023-05-18T09:30:50;3.78;;;1.85;;
75012;SDS011;63567;49.956;20.130;2023-05-18T09:33:17;4.95;;;1.77;;
75012;SDS011;63567;49.956;20.130;2023-05-18T09:35:45;5.55;;;1.77;;
75012;SDS011;63567;49.956;20.130;2023-05-18T09:38:11;4.28;;;2.33;;
75012;SDS011;63567;49.956;20.130;2023-05-18T09:43:09;3.25;;;1.85;;
75012;SDS011;63567;49.956;20.130;2023-05-18T09:45:34;3.73;;;1.90;;
75012;SDS011;63567;49.956;20.130;2023-05-18T09:48:06;5.13;;;1.88;;
75012;SDS011;63567;49.956;20.130;2023-05-18T09:50:31;3.83;;;1.80;;
75012;SDS011;63567;49.956;20.130;2023-05-18T09:52:57;5.67;;;1.70;;
75012;SDS011;63567;49.956;20.130;2023-05-18T09:55:24;3.92;;;1.80;;
75012;SDS011;63567;49.956;20.130;2023-05-18T09:57:49;4.78;;;2.00;;
75012;SDS011;63567;49.956;20.130;2023-05-18T10:00:16;4.70;;;1.90;;
75012;SDS011;63567;49.956;20.130;2023-05-18T10:02:44;3.63;;;1.88;;
75012;SDS011;63567;49.956;20.130;2023-05-18T10:05:22;3.85;;;2.00;;
75012;SDS011;63567;49.956;20.130;2023-05-18T10:07:51;5.03;;;2.22;;
75012;SDS011;63567;49.956;20.130;2023-05-18T10:10:18;4.72;;;2.22;;
75012;SDS011;63567;49.956;20.130;2023-05-18T10:12:45;3.47;;;1.83;;
75012;SDS011;63567;49.956;20.130;2023-05-18T10:15:14;4.35;;;1.73;;
75012;SDS011;63567;49.956;20.130;2023-05-18T10:17:41;3.38;;;1.73;;
75012;SDS011;63567;49.956;20.130;2023-05-18T10:20:07;4.13;;;2.00;;
75012;SDS011;63567;49.956;20.130;2023-05-18T10:22:34;3.92;;;1.92;;
75012;SDS011;63567;49.956;20.130;2023-05-18T10:25:03;3.67;;;1.83;;
75012;SDS011;63567;49.956;20.130;2023-05-18T10:27:29;5.53;;;2.40;;
75012;SDS011;63567;49.956;20.130;2023-05-18T10:29:59;4.30;;;2.05;;
75012;SDS011;63567;49.956;20.130;2023-05-18T10:32:28;3.65;;;2.40;;
75012;SDS011;63567;49.956;20.130;2023-05-18T10:34:54;4.13;;;1.88;;
75012;SDS011;63567;49.956;20.130;2023-05-18T10:37:23;3.00;;;1.65;;
75012;SDS011;63567;49.956;20.130;2023-05-18T10:39:54;3.20;;;1.80;;
75012;SDS011;63567;49.956;20.130;2023-05-18T10:42:22;4.07;;;2.22;;
75012;SDS011;63567;49.956;20.130;2023-05-18T10:44:51;4.75;;;1.70;;
75012;SDS011;63567;49.956;20.130;2023-05-18T10:47:18;3.55;;;1.45;;
75012;SDS011;63567;49.956;20.130;2023-05-18T10:49:46;3.97;;;1.67;;
75012;SDS011;63567;49.956;20.130;2023-05-18T10:52:13;3.13;;;1.50;;
75012;SDS011;63567;49.956;20.130;2023-05-18T10:54:41;4.25;;;1.92;;
75012;SDS011;63567;49.956;20.130;2023-05-18T10:57:06;5.70;;;1.75;;
75012;SDS011;63567;49.956;20.130;2023-05-18T10:59:36;3.58;;;1.58;;
75012;SDS011;63567;49.956;20.130;2023-05-18T11:02:05;3.03;;;1.80;;
75012;SDS011;63567;49.956;20.130;2023-05-18T11:04:32;4.80;;;1.23;;
75012;SDS011;63567;49.956;20.130;2023-05-18T11:06:58;4.60;;;1.63;;
75012;SDS011;63567;49.956;20.130;2023-05-18T11:09:24;3.20;;;1.70;;
75012;SDS011;63567;49.956;20.130;2023-05-18T11:14:27;3.65;;;1.42;;
75012;SDS011;63567;49.956;20.130;2023-05-18T11:17:13;3.08;;;1.60;;
75012;SDS011;63567;49.956;20.130;2023-05-18T11:22:44;2.78;;;1.50;;
75012;SDS011;63567;49.956;20.130;2023-05-18T11:27:50;2.42;;;1.30;;
75012;SDS011;63567;49.956;20.130;2023-05-18T11:30:28;4.50;;;1.70;;
75012;SDS011;63567;49.956;20.130;2023-05-18T11:33:10;3.22;;;1.60;;
75012;SDS011;63567;49.956;20.130;2023-05-18T11:38:49;3.55;;;1.83;;
75012;SDS011;63567;49.956;20.130;2023-05-18T11:41:34;3.70;;;1.70;;
75012;SDS011;63567;49.956;20.130;2023-05-18T11:44:04;3.42;;;1.70;;
75012;SDS011;63567;49.956;20.130;2023-05-18T11:46:35;4.00;;;1.70;;
75012;SDS011;63567;49.956;20.130;2023-05-18T11:49:10;3.05;;;1.70;;
75012;SDS011;63567;49.956;20.130;2023-05-18T11:54:27;3.42;;;1.88;;
75012;SDS011;63567;49.956;20.130;2023-05-18T11:59:29;4.82;;;2.30;;
75012;SDS011;63567;49.956;20.130;2023-05-18T12:01:55;3.45;;;1.92;;
75012;SDS011;63567;49.956;20.130;2023-05-18T12:04:23;5.03;;;2.10;;
75012;SDS011;63567;49.956;20.130;2023-05-18T12:06:49;4.55;;;2.22;;
75012;SDS011;63567;49.956;20.130;2023-05-18T12:09:16;3.28;;;1.90;;
75012;SDS011;63567;49.956;20.130;2023-05-18T12:11:42;4.70;;;2.05;;
75012;SDS011;63567;49.956;20.130;2023-05-18T12:14:08;3.45;;;2.10;;
75012;SDS011;63567;49.956;20.130;2023-05-18T12:16:34;4.20;;;2.10;;
75012;SDS011;63567;49.956;20.130;2023-05-18T12:19:00;4.00;;;2.25;;
75012;SDS011;63567;49.956;20.130;2023-05-18T12:21:25;3.80;;;2.50;;
75012;SDS011;63567;49.956;20.130;2023-05-18T12:23:58;4.03;;;2.40;;
75012;SDS011;63567;49.956;20.130;2023-05-18T12:26:24;4.75;;;2.70;;
75012;SDS011;63567;49.956;20.130;2023-05-18T12:28:56;5.07;;;2.17;;
75012;SDS011;63567;49.956;20.130;2023-05-18T12:31:24;5.10;;;2.25;;
75012;SDS011;63567;49.956;20.130;2023-05-18T12:33:50;3.35;;;2.00;;
75012;SDS011;63567;49.956;20.130;2023-05-18T12:36:15;4.35;;;2.20;;
75012;SDS011;63567;49.956;20.130;2023-05-18T12:38:41;4.47;;;2.63;;
75012;SDS011;63567;49.956;20.130;2023-05-18T12:41:06;5.37;;;2.37;;
75012;SDS011;63567;49.956;20.130;2023-05-18T12:43:33;6.10;;;2.70;;
75012;SDS011;63567;49.956;20.130;2023-05-18T12:46:02;4.50;;;2.40;;
75012;SDS011;63567;49.956;20.130;2023-05-18T12:48:34;4.47;;;2.40;;
75012;SDS011;63567;49.956;20.130;2023-05-18T12:51:00;5.95;;;2.70;;
75012;SDS011;63567;49.956;20.130;2023-05-18T12:53:25;4.65;;;2.58;;
75012;SDS011;63567;49.956;20.130;2023-05-18T12:55:57;4.50;;;2.22;;
75012;SDS011;63567;49.956;20.130;2023-05-18T12:58:23;4.60;;;2.53;;
75012;SDS011;63567;49.956;20.130;2023-05-18T13:00:49;4.72;;;2.60;;
75012;SDS011;63567;49.956;20.130;2023-05-18T13:03:15;5.50;;;2.63;;
75012;SDS011;63567;49.956;20.130;2023-05-18T13:05:42;3.75;;;2.08;;
75012;SDS011;63567;49.956;20.130;2023-05-18T13:08:15;6.20;;;2.85;;
75012;SDS011;63567;49.956;20.130;2023-05-18T13:10:47;3.85;;;2.35;;
75012;SDS011;63567;49.956;20.130;2023-05-18T13:13:15;4.47;;;2.50;;
75012;SDS011;63567;49.956;20.130;2023-05-18T13:15:41;4.22;;;2.47;;
75012;SDS011;63567;49.956;20.130;2023-05-18T13:18:08;4.32;;;2.65;;
75012;SDS011;63567;49.956;20.130;2023-05-18T13:23:08;2.92;;;1.80;;
75012;SDS011;63567;49.956;20.130;2023-05-18T13:25:37;3.30;;;1.98;;
75012;SDS011;63567;49.956;20.130;2023-05-18T13:28:04;3.45;;;2.17;;
75012;SDS011;63567;49.956;20.130;2023-05-18T13:30:30;3.88;;;2.10;;
75012;SDS011;63567;49.956;20.130;2023-05-18T13:32:57;5.60;;;2.17;;
75012;SDS011;63567;49.956;20.130;2023-05-18T13:35:23;3.63;;;2.53;;
75012;SDS011;63567;49.956;20.130;2023-05-18T13:37:48;5.10;;;2.90;;
75012;SDS011;63567;49.956;20.130;2023-05-18T13:40:15;3.88;;;2.42;;
75012;SDS011;63567;49.956;20.130;2023-05-18T13:42:41;5.35;;;2.75;;
75012;SDS011;63567;49.956;20.130;2023-05-18T13:45:07;4.03;;;2.40;;
75012;SDS011;63567;49.956;20.130;2023-05-18T13:47:33;4.50;;;2.40;;
75012;SDS011;63567;49.956;20.130;2023-05-18T13:49:58;3.70;;;2.60;;
75012;SDS011;63567;49.956;20.130;2023-05-18T13:52:24;3.83;;;2.63;;
75012;SDS011;63567;49.956;20.130;2023-05-18T13:54:49;3.10;;;2.30;;
75012;SDS011;63567;49.956;20.130;2023-05-18T13:57:14;3.45;;;2.08;;
75012;SDS011;63567;49.956;20.130;2023-05-18T13:59:40;3.63;;;2.23;;
75012;SDS011;63567;49.956;20.130;2023-05-18T14:02:05;4.23;;;2.67;;
75012;SDS011;63567;49.956;20.130;2023-05-18T14:04:31;4.93;;;2.72;;
75012;SDS011;63567;49.956;20.130;2023-05-18T14:06:56;5.07;;;3.10;;
75012;SDS011;63567;49.956;20.130;2023-05-18T14:09:22;4.47;;;2.97;;
75012;SDS011;63567;49.956;20.130;2023-05-18T14:11:48;4.20;;;2.92;;
75012;SDS011;63567;49.956;20.130;2023-05-18T14:14:13;3.97;;;2.67;;
75012;SDS011;63567;49.956;20.130;2023-05-18T14:16:39;6.07;;;2.38;;
75012;SDS011;63567;49.956;20.130;2023-05-18T14:19:04;3.80;;;2.43;;
75012;SDS011;63567;49.956;20.130;2023-05-18T14:21:29;4.13;;;2.93;;
75012;SDS011;63567;49.956;20.130;2023-05-18T14:23:55;4.80;;;2.60;;
75012;SDS011;63567;49.956;20.130;2023-05-18T14:26:20;5.27;;;2.83;;
75012;SDS011;63567;49.956;20.130;2023-05-18T14:28:46;4.30;;;2.83;;
75012;SDS011;63567;49.956;20.130;2023-05-18T14:31:11;4.10;;;3.00;;
75012;SDS011;63567;49.956;20.130;2023-05-18T14:33:37;4.10;;;2.70;;
75012;SDS011;63567;49.956;20.130;2023-05-18T14:36:02;4.63;;;2.80;;
75012;SDS011;63567;49.956;20.130;2023-05-18T14:38:28;4.65;;;3.00;;
75012;SDS011;63567;49.956;20.130;2023-05-18T14:40:53;4.93;;;2.87;;
75012;SDS011;63567;49.956;20.130;2023-05-18T14:43:18;4.27;;;2.97;;
75012;SDS011;63567;49.956;20.130;2023-05-18T14:45:43;4.85;;;2.83;;
75012;SDS011;63567;49.956;20.130;2023-05-18T14:48:09;4.60;;;2.80;;
75012;SDS011;63567;49.956;20.130;2023-05-18T14:50:35;3.70;;;2.78;;
75012;SDS011;63567;49.956;20.130;2023-05-18T14:53:00;4.38;;;3.05;;
75012;SDS011;63567;49.956;20.130;2023-05-18T14:55:25;4.00;;;2.83;;
75012;SDS011;63567;49.956;20.130;2023-05-18T14:57:51;3.87;;;2.57;;
75012;SDS011;63567;49.956;20.130;2023-05-18T15:00:16;4.20;;;2.63;;